Time;durP1;ratioP1;P1;durP2;ratioP2;P2;SDS_P1;SDS_P2;PMS_P1;PMS_P2;Temp;Humidity;BMP_temperature;BMP_pressure;BME280_temperature;BME280_humidity;BME280_pressure;Samples;Min_cycle;Max_cycle;Signal;HPM_P1;HPM_P2
2022/06/09 00:01:24;;;;;;;34.25;17.48;;;14.90;99.90;;;;;;4981821;28;90267;-35
2022/06/09 00:04:12;;;;;;;24.52;16.10;;;14.90;99.90;;;;;;4980942;28;90580;-34
2022/06/09 00:06:40;;;;;;;;;;;14.90;99.90;;;;;;4981595;28;89521;-36
2022/06/09 00:09:06;;;;;;;24.85;15.85;;;14.90;99.90;;;;;;4982874;28;89627;-36
2022/06/09 00:11:36;;;;;;;24.88;16.70;;;14.90;99.90;;;;;;4981697;28;89999;-34
2022/06/09 00:14:02;;;;;;;21.02;16.23;;;14.80;99.90;;;;;;4981680;28;90174;-33
2022/06/09 00:16:28;;;;;;;23.92;15.10;;;14.80;99.90;;;;;;4980496;28;90725;-33
2022/06/09 00:18:53;;;;;;;25.15;15.15;;;14.90;99.90;;;;;;4981132;28;90365;-37
2022/06/09 00:21:21;;;;;;;23.35;14.73;;;14.80;99.90;;;;;;4980893;28;88916;-35
2022/06/09 00:23:46;;;;;;;26.98;16.45;;;14.90;99.90;;;;;;4980075;28;90052;-34
2022/06/09 00:26:12;;;;;;;18.25;13.88;;;14.80;99.90;;;;;;4981406;28;90659;-34
2022/06/09 00:28:38;;;;;;;22.02;15.75;;;14.80;99.90;;;;;;4980747;28;89427;-33
2022/06/09 00:31:03;;;;;;;24.40;13.48;;;14.80;99.90;;;;;;4981065;28;89349;-34
2022/06/09 00:33:29;;;;;;;24.05;15.95;;;14.80;99.90;;;;;;4981489;28;90423;-34
2022/06/09 00:35:55;;;;;;;37.28;16.02;;;14.80;99.90;;;;;;4980089;28;89744;-33
2022/06/09 00:38:20;;;;;;;24.10;13.95;;;14.80;99.90;;;;;;4981027;28;89799;-35
2022/06/09 00:40:46;;;;;;;23.65;13.65;;;14.80;99.90;;;;;;4980551;28;89844;-34
2022/06/09 00:43:11;;;;;;;22.30;15.02;;;14.80;99.90;;;;;;4981073;28;90151;-34
2022/06/09 00:45:47;;;;;;;21.65;14.35;;;14.80;99.90;;;;;;4980032;28;90353;-34
2022/06/09 00:48:44;;;;;;;30.88;15.02;;;14.80;99.90;;;;;;4978816;28;89290;-34
2022/06/09 00:51:21;;;;;;;26.10;15.63;;;14.80;99.90;;;;;;4981028;28;88978;-33
2022/06/09 00:53:51;;;;;;;27.77;14.63;;;14.80;99.90;;;;;;4980607;28;90355;-35
2022/06/09 00:58:48;;;;;;;29.65;15.27;;;14.80;99.90;;;;;;4998650;28;90194;-36
2022/06/09 01:01:17;;;;;;;26.20;14.75;;;14.70;99.90;;;;;;5001140;28;88927;-33
2022/06/09 01:03:48;;;;;;;21.58;14.93;;;14.70;99.90;;;;;;5000644;28;90548;-35
2022/06/09 01:06:18;;;;;;;22.17;13.52;;;14.60;99.90;;;;;;5001001;28;90632;-36
2022/06/09 01:08:54;;;;;;;26.08;12.93;;;14.60;99.90;;;;;;4999752;28;90582;-35
2022/06/09 01:11:20;;;;;;;18.35;12.45;;;14.50;99.90;;;;;;5000783;28;88389;-32
2022/06/09 01:13:46;;;;;;;28.05;14.75;;;14.50;99.90;;;;;;4999595;28;89802;-37
2022/06/09 01:16:28;;;;;;;20.45;12.90;;;14.50;99.90;;;;;;5001061;28;89668;-34
2022/06/09 01:19:13;;;;;;;22.33;12.77;;;14.50;99.90;;;;;;4999725;28;89246;-36
2022/06/09 01:22:12;;;;;;;28.65;14.02;;;14.40;99.90;;;;;;5000036;28;89123;-35
2022/06/09 01:24:53;;;;;;;25.55;13.52;;;14.40;99.90;;;;;;5000750;28;89691;-34
2022/06/09 01:27:53;;;;;;;19.90;12.90;;;14.40;99.90;;;;;;5000387;28;89491;-34
2022/06/09 01:30:35;;;;;;;19.50;11.80;;;14.30;99.90;;;;;;4999965;28;88719;-35
2022/06/09 01:33:09;;;;;;;34.20;14.00;;;14.30;99.90;;;;;;5000175;28;89217;-35
2022/06/09 01:35:46;;;;;;;24.73;12.27;;;14.30;99.90;;;;;;4999991;28;89162;-37
2022/06/09 01:38:12;;;;;;;25.80;13.35;;;14.30;99.90;;;;;;5000312;28;89777;-34
2022/06/09 01:40:38;;;;;;;26.15;12.75;;;14.30;99.90;;;;;;4999815;28;89229;-33
2022/06/09 01:43:05;;;;;;;20.60;11.77;;;14.30;99.90;;;;;;4999770;28;90001;-33
2022/06/09 01:45:42;;;;;;;21.05;12.30;;;14.30;99.90;;;;;;4999776;28;89815;-35
2022/06/09 01:48:11;;;;;;;18.63;12.13;;;14.20;99.90;;;;;;4999973;28;89948;-33
2022/06/09 01:50:46;;;;;;;22.13;12.90;;;14.20;99.90;;;;;;5000157;28;91291;-33
2022/06/09 01:53:27;;;;;;;19.23;12.77;;;14.20;99.90;;;;;;4999371;28;89481;-37
2022/06/09 01:55:59;;;;;;;19.65;11.32;;;14.20;99.90;;;;;;4999257;28;90231;-32
2022/06/09 01:58:34;;;;;;;21.77;12.05;;;14.20;99.90;;;;;;4997608;28;92234;-34
2022/06/09 02:01:02;;;;;;;23.98;12.73;;;14.10;99.90;;;;;;4999487;28;90552;-34
2022/06/09 02:03:36;;;;;;;28.13;12.57;;;14.10;99.90;;;;;;4999746;28;89485;-37
2022/06/09 02:06:05;;;;;;;24.85;10.90;;;14.00;99.90;;;;;;4999933;28;90374;-34
2022/06/09 02:08:33;;;;;;;23.88;10.85;;;14.00;99.90;;;;;;4998953;28;89726;-35
2022/06/09 02:11:04;;;;;;;21.08;11.05;;;14.00;99.90;;;;;;4997388;28;91427;-34
2022/06/09 02:13:34;;;;;;;24.67;12.70;;;14.00;99.90;;;;;;4998741;28;90063;-35
2022/06/09 02:16:04;;;;;;;17.63;11.07;;;14.00;99.90;;;;;;4999639;28;89739;-35
2022/06/09 02:18:34;;;;;;;22.52;12.00;;;13.90;99.90;;;;;;4999158;28;89803;-32
2022/06/09 02:21:09;;;;;;;24.95;10.82;;;13.90;99.90;;;;;;4999499;28;90324;-35
2022/06/09 02:23:36;;;;;;;19.75;11.65;;;13.90;99.90;;;;;;4998767;28;90034;-37
2022/06/09 02:26:03;;;;;;;15.25;11.25;;;13.90;99.90;;;;;;4999533;28;90302;-35
2022/06/09 02:28:28;;;;;;;19.33;11.35;;;13.80;99.90;;;;;;4999597;28;90089;-34
2022/06/09 02:30:54;;;;;;;26.33;11.93;;;13.80;99.90;;;;;;4999039;28;89743;-33
2022/06/09 02:33:20;;;;;;;20.67;12.18;;;13.80;99.90;;;;;;4999718;28;88680;-34
2022/06/09 02:35:50;;;;;;;16.67;10.80;;;13.80;99.90;;;;;;4998290;28;89174;-34
2022/06/09 02:38:17;;;;;;;20.30;11.23;;;13.80;99.90;;;;;;4998632;28;90176;-35
2022/06/09 02:40:42;;;;;;;25.98;12.02;;;13.80;99.90;;;;;;4999007;28;90093;-35
2022/06/09 02:43:08;;;;;;;17.77;10.13;;;13.80;99.90;;;;;;4999180;28;89085;-34
2022/06/09 02:45:34;;;;;;;27.13;11.63;;;13.80;99.90;;;;;;4998898;28;90537;-34
2022/06/09 02:48:01;;;;;;;24.63;11.80;;;13.80;99.90;;;;;;4998678;28;90816;-37
2022/06/09 02:50:27;;;;;;;21.25;10.43;;;13.80;99.90;;;;;;4999294;28;91541;-33
2022/06/09 02:52:53;;;;;;;18.00;10.13;;;13.70;99.90;;;;;;4998897;28;89674;-37
2022/06/09 02:55:18;;;;;;;18.77;12.20;;;13.70;99.90;;;;;;4998800;28;90236;-37
2022/06/09 02:57:44;;;;;;;28.45;11.30;;;13.70;99.90;;;;;;4997337;28;89552;-32
2022/06/09 03:00:14;;;;;;;18.10;10.63;;;13.70;99.90;;;;;;4998639;28;90480;-34
2022/06/09 03:02:49;;;;;;;26.75;10.68;;;13.70;99.90;;;;;;4999143;28;89607;-34
2022/06/09 03:05:16;;;;;;;20.77;10.77;;;13.70;99.90;;;;;;4998998;28;90147;-33
2022/06/09 03:07:42;;;;;;;19.20;10.95;;;13.70;99.90;;;;;;4997817;28;90068;-32
2022/06/09 03:10:08;;;;;;;18.33;11.02;;;13.70;99.90;;;;;;4997742;28;89389;-34
2022/06/09 03:12:34;;;;;;;21.08;11.63;;;13.70;99.90;;;;;;4997636;28;88178;-32
2022/06/09 03:15:00;;;;;;;26.85;10.57;;;13.60;99.90;;;;;;4998558;28;90266;-35
2022/06/09 03:17:26;;;;;;;22.08;11.13;;;13.60;99.90;;;;;;4999150;28;89478;-35
2022/06/09 03:19:52;;;;;;;26.17;11.75;;;13.60;99.90;;;;;;4998223;28;89784;-33
2022/06/09 03:22:17;;;;;;;21.52;11.35;;;13.50;99.90;;;;;;4998462;28;89156;-35
2022/06/09 03:24:43;;;;;;;21.60;10.80;;;13.50;99.90;;;;;;4997849;28;90342;-33
2022/06/09 03:27:09;;;;;;;18.90;11.48;;;13.60;99.90;;;;;;4998195;28;89901;-34
2022/06/09 03:29:35;;;;;;;19.05;13.43;;;13.50;99.90;;;;;;4998866;28;90446;-35
2022/06/09 03:32:01;;;;;;;14.68;11.05;;;13.50;99.90;;;;;;4998274;28;89914;-33
2022/06/09 03:34:26;;;;;;;20.80;11.70;;;13.50;99.90;;;;;;4998496;28;91525;-34
2022/06/09 03:36:52;;;;;;;20.70;11.63;;;13.50;99.90;;;;;;4996909;28;91001;-33
2022/06/09 03:39:18;;;;;;;26.90;13.57;;;13.40;99.90;;;;;;4998489;28;90257;-37
2022/06/09 03:41:43;;;;;;;25.90;11.75;;;13.40;99.90;;;;;;4998705;28;89575;-34
2022/06/09 03:44:09;;;;;;;26.23;12.27;;;13.40;99.90;;;;;;4997779;28;90374;-37
2022/06/09 03:46:35;;;;;;;14.10;11.13;;;13.40;99.90;;;;;;4998282;28;89042;-35
2022/06/09 03:49:02;;;;;;;24.05;12.80;;;13.40;99.90;;;;;;4997822;28;89761;-33
2022/06/09 03:51:27;;;;;;;20.27;11.77;;;13.50;99.90;;;;;;4998521;28;88788;-36
2022/06/09 03:53:53;;;;;;;24.33;12.77;;;13.50;99.90;;;;;;4997938;28;91144;-34
2022/06/09 03:56:21;;;;;;;21.13;12.95;;;13.50;99.90;;;;;;4997248;28;89886;-36
2022/06/09 03:58:46;;;;;;;23.90;13.80;;;13.50;99.90;;;;;;4997779;28;89988;-35
2022/06/09 04:01:13;;;;;;;18.02;11.77;;;13.50;99.90;;;;;;4998175;28;89084;-33
2022/06/09 04:03:40;;;;;;;22.67;13.75;;;13.50;99.90;;;;;;5002624;28;90797;-34
2022/06/09 04:06:11;;;;;;;33.75;14.52;;;13.50;99.90;;;;;;5003416;28;89961;-36
2022/06/09 04:08:37;;;;;;;26.83;13.55;;;13.60;99.90;;;;;;5002368;28;89373;-33
2022/06/09 04:11:02;;;;;;;23.38;12.65;;;13.60;99.90;;;;;;5000828;28;88929;-35
2022/06/09 04:13:28;;;;;;;19.17;11.73;;;13.60;99.90;;;;;;4999515;28;90054;-33
2022/06/09 04:15:54;;;;;;;22.23;14.32;;;13.60;99.90;;;;;;4997651;28;89917;-36
2022/06/09 04:18:19;;;;;;;13.93;12.02;;;13.70;99.90;;;;;;4996307;28;89655;-34
2022/06/09 04:20:45;;;;;;;23.17;13.07;;;13.70;99.90;;;;;;4997755;28;89284;-34
2022/06/09 04:23:10;;;;;;;24.27;12.25;;;13.80;99.90;;;;;;5000748;28;90261;-35
2022/06/09 04:25:38;;;;;;;25.88;11.18;;;13.80;99.90;;;;;;4997771;28;90811;-37
2022/06/09 04:28:04;;;;;;;21.42;12.27;;;13.80;99.90;;;;;;4994469;28;89606;-34
2022/06/09 04:30:30;;;;;;;27.38;12.20;;;13.90;99.90;;;;;;4999123;28;87990;-37
2022/06/09 04:32:57;;;;;;;20.33;10.38;;;14.00;99.90;;;;;;4998781;28;90397;-38
2022/06/09 04:35:24;;;;;;;19.48;11.13;;;14.00;99.90;;;;;;4998990;28;89726;-35
2022/06/09 04:38:01;;;;;;;17.85;11.40;;;14.00;99.90;;;;;;4998534;28;90171;-34
2022/06/09 04:40:33;;;;;;;17.55;12.10;;;13.90;99.90;;;;;;4999149;28;88935;-35
2022/06/09 04:42:59;;;;;;;16.30;11.23;;;13.90;99.90;;;;;;4999817;28;90554;-35
2022/06/09 04:45:25;;;;;;;18.38;11.57;;;13.90;99.90;;;;;;4998662;28;89637;-33
2022/06/09 04:47:51;;;;;;;18.63;11.32;;;13.90;99.90;;;;;;4998527;28;89862;-35
2022/06/09 04:50:18;;;;;;;23.67;12.45;;;14.00;99.90;;;;;;4998286;28;90108;-32
2022/06/09 04:52:44;;;;;;;18.67;12.65;;;14.00;99.90;;;;;;4998568;28;89862;-38
2022/06/09 04:55:10;;;;;;;18.63;11.80;;;14.00;99.90;;;;;;4997977;28;91099;-33
2022/06/09 04:57:36;;;;;;;18.33;11.77;;;14.00;99.90;;;;;;4995926;28;91192;-35
2022/06/09 05:00:02;;;;;;;18.17;10.70;;;14.00;99.90;;;;;;4998970;28;90110;-32
2022/06/09 05:02:28;;;;;;;18.05;11.00;;;14.10;99.90;;;;;;4998460;28;90704;-34
2022/06/09 05:04:53;;;;;;;20.13;12.55;;;14.10;99.90;;;;;;4998083;28;89621;-35
2022/06/09 05:07:19;;;;;;;16.52;11.07;;;14.10;99.90;;;;;;4998983;28;88745;-34
2022/06/09 05:09:45;;;;;;;23.65;12.90;;;14.10;99.90;;;;;;4997751;28;88157;-35
2022/06/09 05:12:10;;;;;;;31.10;11.52;;;14.10;99.90;;;;;;4999050;28;89972;-36
2022/06/09 05:14:36;;;;;;;25.60;12.18;;;14.20;99.90;;;;;;4997411;28;90941;-34
2022/06/09 05:17:02;;;;;;;16.63;11.90;;;14.20;99.90;;;;;;4998413;28;90118;-34
2022/06/09 05:19:27;;;;;;;19.85;12.40;;;14.20;99.90;;;;;;4998371;28;89465;-35
2022/06/09 05:21:53;;;;;;;20.25;11.82;;;14.20;99.90;;;;;;4997777;28;91358;-33
2022/06/09 05:24:19;;;;;;;26.85;12.45;;;14.20;99.90;;;;;;4997628;28;89386;-34
2022/06/09 05:26:44;;;;;;;17.50;11.10;;;14.20;99.90;;;;;;4977075;28;91367;-34
2022/06/09 05:29:10;;;;;;;14.90;11.27;;;14.20;99.90;;;;;;4992703;28;89059;-33
2022/06/09 05:31:35;;;;;;;20.23;11.82;;;14.30;99.90;;;;;;4990901;28;90662;-34
2022/06/09 05:34:01;;;;;;;24.48;12.70;;;14.30;99.90;;;;;;4987518;28;89438;-34
2022/06/09 05:36:26;;;;;;;15.13;11.60;;;14.30;99.90;;;;;;4988090;28;89434;-36
2022/06/09 05:47:05;;;;;;;23.30;13.43;;;14.30;99.90;;;;;;5001403;28;89520;-35
2022/06/09 05:49:31;;;;;;;13.48;11.70;;;14.30;99.90;;;;;;4998113;28;88145;-35
2022/06/09 05:51:57;;;;;;;17.55;15.13;;;14.30;99.90;;;;;;4986158;28;89925;-37
2022/06/09 05:54:23;;;;;;;19.17;13.90;;;14.30;99.90;;;;;;4998461;28;89565;-37
2022/06/09 05:56:49;;;;;;;17.65;14.40;;;14.40;99.90;;;;;;4997332;28;89494;-34
2022/06/09 05:59:15;;;;;;;16.50;13.85;;;14.40;99.90;;;;;;5001323;28;88914;-32
2022/06/09 06:01:41;;;;;;;24.17;14.10;;;14.40;99.90;;;;;;4991099;28;89863;-32
2022/06/09 06:04:08;;;;;;;21.55;13.85;;;14.40;99.90;;;;;;4986930;28;90668;-37
2022/06/09 06:06:34;;;;;;;17.25;13.55;;;14.40;99.90;;;;;;4995134;28;90272;-35
2022/06/09 06:09:07;;;;;;;20.77;13.70;;;14.40;99.90;;;;;;5002605;28;88343;-34
2022/06/09 06:11:38;;;;;;;18.90;14.07;;;14.40;99.90;;;;;;4998609;28;90122;-35
2022/06/09 06:14:04;;;;;;;20.33;14.05;;;14.40;99.90;;;;;;5003107;28;89459;-37
2022/06/09 06:16:30;;;;;;;16.38;13.07;;;14.50;99.90;;;;;;5004409;28;89648;-37
2022/06/09 06:18:56;;;;;;;19.45;14.50;;;14.40;99.90;;;;;;5003493;28;88552;-33
2022/06/09 06:21:23;;;;;;;22.27;15.52;;;14.50;99.90;;;;;;4998033;28;90291;-35
2022/06/09 06:23:48;;;;;;;18.73;14.40;;;14.50;99.90;;;;;;4996569;28;89939;-35
2022/06/09 06:26:14;;;;;;;27.30;13.70;;;14.60;99.90;;;;;;4997112;28;89096;-37
2022/06/09 06:28:40;;;;;;;22.60;15.10;;;14.60;99.90;;;;;;4996710;28;89416;-36
2022/06/09 06:31:06;;;;;;;17.92;15.32;;;14.60;99.90;;;;;;4996800;28;90178;-36
2022/06/09 06:33:31;;;;;;;29.45;15.00;;;14.70;99.90;;;;;;4997403;28;89648;-34
2022/06/09 06:35:57;;;;;;;19.27;16.38;;;14.70;99.90;;;;;;4996780;28;89177;-33
2022/06/09 06:38:23;;;;;;;19.15;14.75;;;14.70;99.90;;;;;;4996957;28;88700;-34
2022/06/09 06:40:49;;;;;;;23.13;13.68;;;14.70;99.90;;;;;;4996980;28;89511;-35
2022/06/09 06:43:14;;;;;;;18.17;13.65;;;14.70;99.90;;;;;;4996799;28;89653;-35
2022/06/09 06:45:41;;;;;;;14.40;12.90;;;14.70;99.90;;;;;;4996807;28;90064;-35
2022/06/09 06:48:06;;;;;;;15.52;12.77;;;14.80;99.90;;;;;;4996922;28;88065;-35
2022/06/09 06:50:32;;;;;;;27.52;15.73;;;15.00;99.90;;;;;;4996933;28;89982;-34
2022/06/09 06:52:58;;;;;;;17.45;15.35;;;15.20;99.90;;;;;;4996457;28;90567;-33
2022/06/09 06:55:24;;;;;;;15.52;13.90;;;15.40;99.90;;;;;;4996694;28;90014;-35
2022/06/09 06:57:50;;;;;;;15.20;13.27;;;15.60;99.90;;;;;;4996574;28;89311;-33
2022/06/09 07:00:20;;;;;;;18.45;14.85;;;15.70;99.90;;;;;;4996225;28;90313;-36
2022/06/09 07:02:47;;;;;;;15.05;13.63;;;15.80;99.90;;;;;;5000627;28;89369;-33
2022/06/09 07:05:14;;;;;;;17.33;15.60;;;15.90;99.90;;;;;;5003647;28;88417;-33
2022/06/09 07:07:40;;;;;;;22.48;14.57;;;16.00;99.90;;;;;;4996805;28;88994;-32
2022/06/09 07:10:08;;;;;;;15.93;13.75;;;16.10;99.90;;;;;;4996571;28;91790;-34
2022/06/09 07:12:34;;;;;;;18.08;14.90;;;16.30;99.90;;;;;;4996656;28;89753;-35
2022/06/09 07:14:59;;;;;;;20.27;12.80;;;16.40;99.90;;;;;;4996788;28;89313;-35
2022/06/09 07:17:25;;;;;;;19.48;14.45;;;16.60;99.90;;;;;;4996064;28;90228;-35
2022/06/09 07:19:51;;;;;;;14.07;12.18;;;16.50;99.90;;;;;;4996052;28;89997;-34
2022/06/09 07:22:17;;;;;;;18.58;14.13;;;16.70;99.90;;;;;;4996519;28;89597;-35
2022/06/09 07:24:43;;;;;;;14.55;13.13;;;16.70;99.90;;;;;;4996679;28;90309;-34
2022/06/09 07:27:09;;;;;;;15.43;12.95;;;17.00;99.90;;;;;;4998119;28;88989;-37
2022/06/09 07:29:35;;;;;;;18.23;12.82;;;17.10;99.90;;;;;;4996135;28;90117;-39
2022/06/09 07:32:00;;;;;;;15.20;11.52;;;17.10;99.90;;;;;;4996141;28;89998;-34
2022/06/09 07:34:26;;;;;;;14.52;11.73;;;17.30;99.90;;;;;;4996281;28;89409;-37
2022/06/09 07:36:53;;;;;;;17.88;11.80;;;17.50;99.90;;;;;;4995171;28;89892;-36
2022/06/09 07:39:18;;;;;;;15.05;12.30;;;17.40;99.90;;;;;;4995519;28;90056;-35
2022/06/09 07:41:44;;;;;;;16.38;10.43;;;17.80;99.90;;;;;;4999486;28;90599;-33
2022/06/09 07:44:10;;;;;;;11.80;10.60;;;17.70;99.90;;;;;;4996299;28;90501;-35
2022/06/09 07:46:36;;;;;;;10.95;9.85;;;17.70;99.90;;;;;;4998779;28;89771;-33
2022/06/09 07:49:03;;;;;;;10.40;9.38;;;17.90;99.90;;;;;;5001853;28;90378;-37
2022/06/09 07:51:30;;;;;;;11.43;9.90;;;18.30;99.90;;;;;;4996732;28;89645;-38
2022/06/09 07:53:56;;;;;;;10.63;9.52;;;18.70;99.90;;;;;;4991250;28;89559;-34
2022/06/09 07:56:23;;;;;;;12.80;8.05;;;18.80;99.90;;;;;;4993533;28;88930;-35
2022/06/09 07:58:48;;;;;;;10.93;9.48;;;18.70;99.90;;;;;;5000811;28;90496;-35
2022/06/09 08:01:17;;;;;;;13.80;8.32;;;18.50;99.90;;;;;;5002865;28;89646;-34
2022/06/09 08:03:43;;;;;;;8.82;7.63;;;18.70;99.90;;;;;;4998192;28;90485;-36
2022/06/09 08:06:09;;;;;;;8.68;7.80;;;19.00;99.90;;;;;;5002404;28;87983;-33
2022/06/09 08:08:35;;;;;;;11.73;8.02;;;18.90;99.90;;;;;;5002412;28;90715;-35
2022/06/09 08:11:01;;;;;;;7.75;7.05;;;18.80;99.90;;;;;;5001814;28;91729;-34
2022/06/09 08:13:27;;;;;;;8.15;7.35;;;18.70;99.90;;;;;;5006753;28;88025;-34
2022/06/09 08:15:53;;;;;;;10.93;8.25;;;18.50;99.90;;;;;;5009105;28;89010;-34
2022/06/09 08:18:19;;;;;;;6.68;6.07;;;18.90;99.90;;;;;;5011266;28;89215;-35
2022/06/09 08:20:46;;;;;;;7.28;6.55;;;19.20;99.90;;;;;;5008294;28;89935;-37
2022/06/09 08:23:15;;;;;;;8.30;5.50;;;19.40;99.90;;;;;;5011544;28;89512;-33
2022/06/09 08:25:43;;;;;;;6.28;5.68;;;19.30;99.90;;;;;;5011059;28;88193;-34
2022/06/09 08:28:11;;;;;;;5.05;4.60;;;19.20;99.90;;;;;;5011460;28;89935;-34
2022/06/09 08:30:37;;;;;;;5.50;4.47;;;19.30;99.90;;;;;;5008623;28;90250;-33
2022/06/09 08:33:03;;;;;;;4.95;4.45;;;19.40;99.90;;;;;;5011269;28;91341;-34
2022/06/09 08:35:31;;;;;;;6.00;5.30;;;19.70;99.90;;;;;;5011522;28;88162;-33
2022/06/09 08:37:56;;;;;;;8.50;5.82;;;19.50;99.90;;;;;;5009740;28;90274;-33
2022/06/09 08:40:41;;;;;;;5.10;4.70;;;19.70;99.90;;;;;;5010118;28;89405;-35
2022/06/09 08:43:30;;;;;;;7.13;4.65;;;19.80;99.90;;;;;;5009207;28;89711;-36
2022/06/09 08:45:57;;;;;;;9.23;4.25;;;20.00;99.90;;;;;;5009252;28;88556;-34
2022/06/09 08:48:25;;;;;;;7.18;4.18;;;20.00;99.90;;;;;;5010906;28;90932;-34
2022/06/09 08:51:05;;;;;;;5.57;3.38;;;20.00;99.90;;;;;;5010325;28;90549;-37
2022/06/09 08:53:37;;;;;;;3.90;3.50;;;20.00;99.90;;;;;;5010486;28;89639;-36
2022/06/09 08:56:22;;;;;;;5.03;3.50;;;20.20;99.90;;;;;;5008856;28;89001;-35
2022/06/09 08:58:54;;;;;;;3.85;3.00;;;20.40;99.90;;;;;;5010210;28;90280;-35
2022/06/09 09:01:32;;;;;;;3.28;2.92;;;20.10;99.90;;;;;;5009411;28;92009;-35
2022/06/09 09:04:01;;;;;;;;;;;20.30;99.90;;;;;;5010752;28;88759;-33
2022/06/09 09:06:49;;;;;;;4.30;3.22;;;20.20;99.90;;;;;;5011250;28;88097;-37
2022/06/09 09:09:23;;;;;;;4.07;3.40;;;20.20;99.90;;;;;;5008373;28;90158;-36
2022/06/09 09:12:04;;;;;;;3.38;2.88;;;20.00;99.90;;;;;;5010127;28;90329;-34
2022/06/09 09:14:35;;;;;;;3.55;2.40;;;20.40;99.90;;;;;;5010518;28;87614;-34
2022/06/09 09:17:24;;;;;;;2.40;2.17;;;20.30;99.90;;;;;;5010142;28;87905;-34
2022/06/09 09:19:53;;;;;;;2.33;1.73;;;20.80;99.90;;;;;;5008181;28;90232;-34
2022/06/09 09:22:46;;;;;;;4.88;2.50;;;20.70;99.90;;;;;;5000449;28;90367;-38
2022/06/09 09:25:13;;;;;;;7.15;2.20;;;20.40;99.90;;;;;;5000508;28;90195;-35
2022/06/09 09:27:52;;;;;;;3.47;2.60;;;20.40;99.90;;;;;;5000670;28;90443;-35
2022/06/09 09:30:23;;;;;;;4.13;2.53;;;20.20;99.90;;;;;;5002529;28;90304;-37
2022/06/09 09:32:55;;;;;;;4.93;2.95;;;20.40;99.90;;;;;;5007255;28;89682;-35
2022/06/09 09:35:27;;;;;;;4.15;2.65;;;20.60;99.90;;;;;;5008972;28;90018;-34
2022/06/09 09:37:55;;;;;;;3.45;2.28;;;20.30;99.90;;;;;;5007622;28;87900;-34
2022/06/09 09:40:30;;;;;;;7.72;2.65;;;20.10;99.90;;;;;;5009330;28;89973;-34
2022/06/09 09:42:59;;;;;;;2.25;2.10;;;20.00;99.90;;;;;;5007977;28;90502;-33
2022/06/09 09:45:46;;;;;;;2.20;2.10;;;19.80;99.90;;;;;;5006728;28;88979;-37
2022/06/09 09:48:40;;;;;;;2.38;1.98;;;19.90;99.90;;;;;;5009396;28;88892;-33
2022/06/09 09:51:11;;;;;;;2.28;1.88;;;20.00;99.90;;;;;;4998788;28;91150;-34
2022/06/09 09:53:55;;;;;;;8.50;2.78;;;20.40;99.90;;;;;;5000450;28;89774;-34
2022/06/09 09:56:20;;;;;;;5.70;2.20;;;21.10;99.90;;;;;;4998669;28;91023;-34
2022/06/09 09:58:46;;;;;;;6.40;2.08;;;21.10;99.90;;;;;;5000766;28;88532;-36
2022/06/09 10:01:17;;;;;;;3.22;2.10;;;21.20;99.90;;;;;;5000594;28;90593;-33
2022/06/09 10:09:35;;;;;;;8.73;2.40;;;21.30;99.90;;;;;;5001035;28;89360;-34
2022/06/09 10:12:31;;;;;;;4.95;1.63;;;21.50;99.90;;;;;;5000160;28;90255;-35
2022/06/09 10:15:04;;;;;;;2.95;1.63;;;21.60;99.90;;;;;;5000255;28;90416;-34
2022/06/09 10:17:41;;;;;;;4.15;1.85;;;20.90;99.90;;;;;;4999806;28;90286;-38
2022/06/09 10:20:28;;;;;;;5.78;2.83;;;20.10;99.90;;;;;;5004487;28;89643;-32
2022/06/09 10:23:01;;;;;;;2.78;2.08;;;19.60;99.90;;;;;;5008495;28;90177;-35
2022/06/09 10:25:38;;;;;;;2.38;2.17;;;19.20;99.90;;;;;;5008479;28;89904;-33
2022/06/09 10:28:33;;;;;;;4.55;2.08;;;18.80;99.90;;;;;;5009561;28;87988;-32
2022/06/09 10:31:11;;;;;;;5.28;2.72;;;18.70;99.90;;;;;;5007690;28;88836;-34
2022/06/09 10:33:52;;;;;;;3.38;2.33;;;18.60;99.90;;;;;;5007514;28;89864;-34
2022/06/09 10:36:26;;;;;;;6.65;2.83;;;18.60;99.90;;;;;;5007832;28;89668;-35
2022/06/09 10:38:59;;;;;;;2.55;2.25;;;18.70;99.90;;;;;;5008646;28;89508;-35
2022/06/09 10:41:51;;;;;;;7.60;3.17;;;18.90;99.90;;;;;;5008223;28;89052;-36
2022/06/09 10:44:30;;;;;;;5.43;2.47;;;19.20;99.90;;;;;;5002247;28;89875;-33
2022/06/09 10:57:04;;;;;;;2.65;2.20;;;20.30;99.90;;;;;;5007991;28;90257;-33
2022/06/09 10:59:55;;;;;;;4.70;2.08;;;20.40;99.90;;;;;;5007022;28;88828;-35
2022/06/09 11:02:25;;;;;;;3.83;2.15;;;20.50;99.90;;;;;;5001306;28;89408;-35
2022/06/09 11:04:52;;;;;;;2.97;2.00;;;20.60;99.90;;;;;;4997260;28;90282;-36
2022/06/09 11:07:33;;;;;;;6.22;2.22;;;20.90;99.90;;;;;;4996797;28;90298;-36
2022/06/09 11:10:17;;;;;;;2.13;1.92;;;21.00;99.90;;;;;;4997058;28;90795;-34
2022/06/09 11:12:57;;;;;;;2.10;1.90;;;20.90;99.90;;;;;;5000088;28;90676;-35
2022/06/09 11:15:32;;;;;;;6.25;2.10;;;20.90;99.90;;;;;;4997553;28;90068;-34
2022/06/09 11:18:13;;;;;;;3.22;2.22;;;20.90;99.90;;;;;;4993190;28;90271;-36
2022/06/09 11:21:20;;;;;;;3.58;2.33;;;20.90;99.90;;;;;;4980157;28;89565;-36
2022/06/09 11:23:57;;;;;;;4.80;2.33;;;20.90;99.90;;;;;;4995282;28;89782;-36
2022/06/09 11:26:35;;;;;;;3.25;1.95;;;20.90;99.90;;;;;;4997676;28;89683;-38
2022/06/09 11:29:03;;;;;;;1.83;1.58;;;20.90;99.90;;;;;;4999053;28;90202;-35
2022/06/09 11:31:43;;;;;;;7.63;2.13;;;21.10;99.90;;;;;;5003475;28;89515;-34
2022/06/09 11:34:22;;;;;;;3.15;1.58;;;21.30;99.90;;;;;;5009108;28;89818;-34
2022/06/09 11:37:08;;;;;;;3.28;1.80;;;21.20;99.90;;;;;;5011396;28;89194;-34
2022/06/09 11:39:59;;;;;;;3.58;1.52;;;21.10;99.90;;;;;;5003103;28;88985;-35
2022/06/09 11:42:41;;;;;;;2.33;1.20;;;21.10;99.90;;;;;;5004093;28;88933;-35
2022/06/09 11:45:22;;;;;;;4.80;1.95;;;21.20;99.90;;;;;;5002380;28;89611;-35
2022/06/09 11:47:49;;;;;;;1.27;1.17;;;21.30;99.90;;;;;;5002217;28;88607;-34
2022/06/09 11:50:21;;;;;;;2.10;1.53;;;21.30;99.90;;;;;;5002536;28;90292;-36
2022/06/09 11:52:49;;;;;;;5.32;1.73;;;21.40;99.90;;;;;;5000039;28;89923;-35
2022/06/09 11:55:57;;;;;;;1.63;1.50;;;21.20;99.90;;;;;;5006230;28;90373;-34
2022/06/09 11:58:33;;;;;;;2.13;1.13;;;21.30;99.90;;;;;;5011610;28;89980;-36
2022/06/09 12:01:27;;;;;;;2.22;1.15;;;21.10;99.90;;;;;;5008020;28;90443;-34
2022/06/09 12:04:34;;;;;;;2.28;1.30;;;21.10;99.90;;;;;;5009609;28;90896;-35
2022/06/09 12:07:36;;;;;;;2.25;1.17;;;21.00;99.90;;;;;;5010813;28;89092;-35
2022/06/09 12:10:25;;;;;;;3.10;1.23;;;21.00;99.90;;;;;;5011409;28;87991;-37
2022/06/09 12:13:12;;;;;;;7.28;1.35;;;21.10;99.90;;;;;;5006324;28;90430;-35
2022/06/09 12:16:00;;;;;;;4.78;1.45;;;21.40;99.90;;;;;;4999698;28;89827;-38
2022/06/09 12:18:30;;;;;;;2.40;1.73;;;21.20;99.90;;;;;;4988043;28;89645;-38
2022/06/09 12:21:16;;;;;;;1.85;1.38;;;21.20;99.90;;;;;;4994502;28;89365;-36
2022/06/09 12:23:50;;;;;;;2.63;1.67;;;21.30;99.90;;;;;;4996537;28;90284;-35
2022/06/09 12:26:19;;;;;;;3.65;1.38;;;21.30;99.90;;;;;;4999960;28;89834;-35
2022/06/09 12:28:44;;;;;;;;;;;21.40;99.90;;;;;;5000464;28;89803;-34
2022/06/09 12:31:16;;;;;;;2.70;1.48;;;21.30;99.90;;;;;;5003982;28;88863;-40
2022/06/09 12:33:54;;;;;;;2.53;1.20;;;21.40;99.90;;;;;;4993240;28;90239;-38
2022/06/09 12:36:35;;;;;;;1.63;1.45;;;21.40;99.90;;;;;;5003426;28;89752;-34
2022/06/09 12:39:26;;;;;;;1.73;0.85;;;21.40;99.90;;;;;;5000120;28;90076;-38
2022/06/09 12:41:54;;;;;;;2.10;1.40;;;21.20;99.90;;;;;;5001729;28;88457;-33
2022/06/09 12:44:36;;;;;;;7.63;1.60;;;21.10;99.90;;;;;;5004006;28;90241;-34
2022/06/09 12:47:23;;;;;;;2.30;1.90;;;21.10;99.90;;;;;;5007578;28;89830;-36
2022/06/09 12:50:00;;;;;;;3.85;2.13;;;21.20;99.90;;;;;;5004525;28;88983;-37
2022/06/09 12:52:32;;;;;;;2.58;1.45;;;21.20;99.90;;;;;;5000494;28;89102;-35
2022/06/09 12:55:00;;;;;;;1.55;1.45;;;21.30;99.90;;;;;;5001787;28;90251;-36
2022/06/09 12:57:32;;;;;;;2.17;1.63;;;21.30;99.90;;;;;;5019952;22;91506;-34
2022/06/09 13:00:04;;;;;;;2.55;1.10;;;21.40;99.90;;;;;;4978839;28;90805;-33
2022/06/09 13:02:34;;;;;;;2.42;1.58;;;21.30;99.90;;;;;;4980808;28;89001;-35
2022/06/09 13:05:36;;;;;;;3.70;1.40;;;21.20;99.90;;;;;;4979910;28;90591;-33
2022/06/09 13:08:20;;;;;;;3.83;1.45;;;21.20;99.90;;;;;;4986060;28;89595;-38
2022/06/09 13:10:55;;;;;;;3.70;1.60;;;21.20;99.90;;;;;;4982734;28;89443;-35
2022/06/09 13:13:29;;;;;;;4.97;1.95;;;21.00;99.90;;;;;;4983869;28;87602;-34
2022/06/09 13:16:10;;;;;;;2.95;1.20;;;21.10;99.90;;;;;;4983700;28;90678;-35
2022/06/09 13:18:42;;;;;;;1.40;1.30;;;21.00;99.90;;;;;;4979624;28;89844;-37
2022/06/09 13:21:45;;;;;;;3.15;1.65;;;21.10;99.90;;;;;;4979597;28;89625;-36
2022/06/09 13:24:35;;;;;;;1.65;1.55;;;21.20;99.90;;;;;;4982705;28;89379;-36